CCA351 ZSPD-UHPP
Flight info
| Callsign | CCA351 |
|---|---|
| Flight time | N/A |
| Altitude | FL370 |
| Route | LAM93D LAMEN A593 SADLI Y590 ELGEP B576 SOSDO Y571 PSN A586 TENAS B467 NULAR L771 BULOD R810 BAGOM G227 UB T577 SAMIK SAMI5N |
| Aircraft | A320/M-CGHLRTWZ/B1D1 |
Departure
| Time | N/A |
|---|---|
| Airport | Shanghai Pudong International Airport (ZSPD) |
Arrival
| Time | 2026-05-05 11:29 |
|---|---|
| Airport | Yelizovo Airport (UHPP) |
| Time | Latitude | Longitude | Altitude | Speed | Heading |
|---|---|---|---|---|---|
| 2026-05-05 08:00 | 36.26811 | 130.16568 | 37044 ft | 505 kts | 36° |
| 2026-05-05 08:00 | 36.29497 | 130.19357 | 37044 ft | 505 kts | 36° |
| 2026-05-05 08:01 | 36.35252 | 130.25376 | 37044 ft | 505 kts | 36° |
| 2026-05-05 08:01 | 36.40611 | 130.30987 | 37044 ft | 505 kts | 36° |
| 2026-05-05 08:02 | 36.45972 | 130.36601 | 37041 ft | 505 kts | 36° |
| 2026-05-05 08:02 | 36.51335 | 130.42221 | 37038 ft | 505 kts | 36° |
| 2026-05-05 08:03 | 36.56691 | 130.47840 | 37031 ft | 504 kts | 36° |
| 2026-05-05 08:03 | 36.62026 | 130.53442 | 37022 ft | 502 kts | 36° |
| 2026-05-05 08:04 | 36.67367 | 130.59059 | 37022 ft | 504 kts | 37° |
| 2026-05-05 08:04 | 36.72710 | 130.64686 | 37021 ft | 504 kts | 37° |
| 2026-05-05 08:05 | 36.78083 | 130.70253 | 37014 ft | 502 kts | 35° |
| 2026-05-05 08:05 | 36.83511 | 130.75705 | 37013 ft | 502 kts | 35° |
| 2026-05-05 08:06 | 36.88948 | 130.81159 | 37014 ft | 503 kts | 35° |
| 2026-05-05 08:06 | 36.94386 | 130.86620 | 37012 ft | 502 kts | 35° |
| 2026-05-05 08:07 | 36.99815 | 130.92074 | 37008 ft | 502 kts | 35° |
| 2026-05-05 08:07 | 37.05244 | 130.97535 | 37005 ft | 502 kts | 35° |
| 2026-05-05 08:08 | 37.10673 | 131.03001 | 36997 ft | 501 kts | 35° |
| 2026-05-05 08:08 | 37.16086 | 131.08462 | 36989 ft | 501 kts | 35° |
| 2026-05-05 08:09 | 37.21508 | 131.13938 | 36992 ft | 503 kts | 35° |
| 2026-05-05 08:09 | 37.26936 | 131.19431 | 36991 ft | 502 kts | 35° |
| 2026-05-05 08:10 | 37.32343 | 131.24913 | 36981 ft | 500 kts | 35° |
| 2026-05-05 08:10 | 37.37772 | 131.30423 | 37008 ft | 506 kts | 35° |
| 2026-05-05 08:11 | 37.43238 | 131.35983 | 37014 ft | 506 kts | 35° |
| 2026-05-05 08:11 | 37.48664 | 131.41516 | 36984 ft | 499 kts | 35° |
| 2026-05-05 08:12 | 37.54055 | 131.47020 | 36984 ft | 502 kts | 35° |
| 2026-05-05 08:12 | 37.59495 | 131.52583 | 37018 ft | 508 kts | 36° |
| 2026-05-05 08:13 | 37.64993 | 131.58122 | 37011 ft | 503 kts | 33° |
| 2026-05-05 08:13 | 37.70650 | 131.63261 | 37007 ft | 503 kts | 31° |
| 2026-05-05 08:14 | 37.76357 | 131.68391 | 37013 ft | 505 kts | 31° |
| 2026-05-05 08:14 | 37.82060 | 131.73515 | 37012 ft | 504 kts | 31° |
| 2026-05-05 08:15 | 37.87768 | 131.78643 | 37015 ft | 505 kts | 31° |
| 2026-05-05 08:15 | 37.93478 | 131.83785 | 37019 ft | 505 kts | 31° |
| 2026-05-05 08:16 | 37.99182 | 131.88937 | 37014 ft | 504 kts | 32° |
| 2026-05-05 08:16 | 38.04882 | 131.94087 | 37012 ft | 504 kts | 32° |
| 2026-05-05 08:17 | 38.10597 | 131.99252 | 37027 ft | 507 kts | 31° |
| 2026-05-05 08:17 | 38.16326 | 132.04436 | 37025 ft | 505 kts | 32° |
| 2026-05-05 08:18 | 38.22029 | 132.09602 | 37017 ft | 504 kts | 32° |
| 2026-05-05 08:18 | 38.27731 | 132.14774 | 37019 ft | 505 kts | 32° |
| 2026-05-05 08:19 | 38.33433 | 132.19954 | 37019 ft | 505 kts | 32° |
| 2026-05-05 08:19 | 38.39139 | 132.25146 | 37020 ft | 505 kts | 32° |
| 2026-05-05 08:20 | 38.44848 | 132.30349 | 37028 ft | 507 kts | 32° |
| 2026-05-05 08:20 | 38.50568 | 132.35572 | 37027 ft | 506 kts | 32° |
| 2026-05-05 08:21 | 38.56260 | 132.40781 | 37017 ft | 504 kts | 32° |
| 2026-05-05 08:21 | 38.61964 | 132.46008 | 37035 ft | 508 kts | 32° |
| 2026-05-05 08:22 | 38.67911 | 132.50799 | 37038 ft | 504 kts | 26° |
| 2026-05-05 08:22 | 38.73924 | 132.55289 | 37021 ft | 500 kts | 26° |
| 2026-05-05 08:23 | 38.79938 | 132.59769 | 37021 ft | 502 kts | 26° |
| 2026-05-05 08:23 | 38.85959 | 132.64258 | 37020 ft | 501 kts | 26° |
| 2026-05-05 08:24 | 38.91979 | 132.68752 | 37021 ft | 501 kts | 26° |
| 2026-05-05 08:24 | 38.98007 | 132.73257 | 37028 ft | 504 kts | 26° |
| 2026-05-05 08:25 | 39.04044 | 132.77777 | 37027 ft | 502 kts | 26° |
| 2026-05-05 08:25 | 39.10062 | 132.82291 | 37019 ft | 501 kts | 26° |
| 2026-05-05 08:26 | 39.16076 | 132.86809 | 37020 ft | 502 kts | 26° |
| 2026-05-05 08:26 | 39.22093 | 132.91337 | 37025 ft | 501 kts | 26° |
| 2026-05-05 08:27 | 39.28097 | 132.95864 | 37021 ft | 501 kts | 26° |
| 2026-05-05 08:27 | 39.34138 | 133.00405 | 37035 ft | 505 kts | 25° |
| 2026-05-05 08:28 | 39.40241 | 133.04760 | 36948 ft | 496 kts | 24° |
| 2026-05-05 08:28 | 39.46261 | 133.08979 | 36913 ft | 494 kts | 24° |
| 2026-05-05 08:29 | 39.52306 | 133.13207 | 36921 ft | 496 kts | 24° |
| 2026-05-05 08:30 | 39.61424 | 133.19600 | 36937 ft | 496 kts | 24° |
| 2026-05-05 08:30 | 39.67502 | 133.23868 | 36951 ft | 499 kts | 24° |
| 2026-05-05 08:31 | 39.73612 | 133.28167 | 36958 ft | 501 kts | 24° |
| 2026-05-05 08:31 | 39.79719 | 133.32475 | 36954 ft | 500 kts | 24° |
| 2026-05-05 08:32 | 39.85825 | 133.36791 | 36960 ft | 500 kts | 24° |
| 2026-05-05 08:32 | 39.91928 | 133.41114 | 36965 ft | 501 kts | 24° |
| 2026-05-05 08:33 | 39.98031 | 133.45445 | 36962 ft | 500 kts | 24° |
| 2026-05-05 08:33 | 40.04131 | 133.49784 | 36965 ft | 501 kts | 24° |
| 2026-05-05 08:34 | 40.10235 | 133.54135 | 36966 ft | 500 kts | 24° |
| 2026-05-05 08:34 | 40.16265 | 133.58446 | 36808 ft | 484 kts | 24° |
| 2026-05-05 08:35 | 40.22135 | 133.62643 | 36799 ft | 485 kts | 24° |
| 2026-05-05 08:35 | 40.28071 | 133.66899 | 36752 ft | 485 kts | 24° |
| 2026-05-05 08:36 | 40.33942 | 133.71119 | 36707 ft | 482 kts | 24° |
| 2026-05-05 08:36 | 40.39792 | 133.75332 | 36680 ft | 480 kts | 24° |
| 2026-05-05 08:37 | 40.45633 | 133.79545 | 36678 ft | 481 kts | 24° |
| 2026-05-05 08:37 | 40.51482 | 133.83774 | 36678 ft | 481 kts | 24° |
| 2026-05-05 08:38 | 40.57328 | 133.88009 | 36677 ft | 481 kts | 24° |
| 2026-05-05 08:38 | 40.63169 | 133.92248 | 36677 ft | 481 kts | 24° |
| 2026-05-05 08:39 | 40.69014 | 133.96500 | 36677 ft | 481 kts | 24° |
| 2026-05-05 08:39 | 40.74855 | 134.00757 | 36677 ft | 481 kts | 24° |
| 2026-05-05 08:40 | 40.80696 | 134.05023 | 36676 ft | 481 kts | 24° |
| 2026-05-05 08:40 | 40.86534 | 134.09296 | 36676 ft | 481 kts | 24° |
| 2026-05-05 08:41 | 40.92376 | 134.13579 | 36676 ft | 481 kts | 24° |
| 2026-05-05 08:41 | 40.98210 | 134.17872 | 36676 ft | 481 kts | 25° |
| 2026-05-05 08:42 | 41.03911 | 134.22530 | 36676 ft | 483 kts | 27° |
| 2026-05-05 08:42 | 41.09605 | 134.27224 | 36675 ft | 483 kts | 27° |
| 2026-05-05 08:43 | 41.15306 | 134.31909 | 36675 ft | 483 kts | 27° |
| 2026-05-05 08:43 | 41.21004 | 134.36592 | 36675 ft | 483 kts | 27° |
| 2026-05-05 08:44 | 41.26702 | 134.41282 | 36675 ft | 483 kts | 27° |
| 2026-05-05 08:44 | 41.32400 | 134.45980 | 36675 ft | 483 kts | 27° |
| 2026-05-05 08:45 | 41.38096 | 134.50687 | 36674 ft | 483 kts | 27° |
| 2026-05-05 08:45 | 41.43794 | 134.55405 | 36674 ft | 483 kts | 27° |
| 2026-05-05 08:46 | 41.49485 | 134.60127 | 36674 ft | 483 kts | 27° |
| 2026-05-05 08:46 | 41.55175 | 134.64858 | 36674 ft | 483 kts | 27° |
| 2026-05-05 08:47 | 41.60868 | 134.69602 | 36674 ft | 483 kts | 27° |
| 2026-05-05 08:47 | 41.66555 | 134.74352 | 36674 ft | 483 kts | 27° |
| 2026-05-05 08:48 | 41.72243 | 134.79113 | 36674 ft | 483 kts | 27° |
| 2026-05-05 08:48 | 41.77923 | 134.83878 | 36673 ft | 483 kts | 27° |
| 2026-05-05 08:49 | 41.83601 | 134.88650 | 36673 ft | 483 kts | 27° |
| 2026-05-05 08:49 | 41.89279 | 134.93433 | 36672 ft | 483 kts | 27° |
| 2026-05-05 08:50 | 41.94954 | 134.98224 | 36671 ft | 483 kts | 27° |
| 2026-05-05 08:50 | 42.00620 | 135.03018 | 36668 ft | 482 kts | 27° |
| 2026-05-05 08:51 | 42.06286 | 135.07822 | 36668 ft | 482 kts | 27° |
| 2026-05-05 08:51 | 42.11952 | 135.12635 | 36668 ft | 482 kts | 27° |
| 2026-05-05 08:52 | 42.17614 | 135.17457 | 36668 ft | 482 kts | 27° |
| 2026-05-05 08:52 | 42.23272 | 135.22285 | 36668 ft | 482 kts | 27° |
| 2026-05-05 08:53 | 42.28935 | 135.27128 | 36668 ft | 482 kts | 27° |
| 2026-05-05 08:53 | 42.34589 | 135.31974 | 36668 ft | 482 kts | 27° |
| 2026-05-05 08:54 | 42.40243 | 135.36831 | 36668 ft | 483 kts | 27° |
| 2026-05-05 08:54 | 42.45902 | 135.41701 | 36668 ft | 483 kts | 28° |
| 2026-05-05 08:55 | 42.51559 | 135.46595 | 36668 ft | 483 kts | 28° |
| 2026-05-05 08:55 | 42.57212 | 135.51501 | 36668 ft | 483 kts | 28° |
| 2026-05-05 08:56 | 42.62859 | 135.56403 | 36668 ft | 483 kts | 28° |
| 2026-05-05 08:56 | 42.68518 | 135.61318 | 36668 ft | 483 kts | 28° |
| 2026-05-05 08:57 | 42.74172 | 135.66234 | 36668 ft | 483 kts | 28° |
| 2026-05-05 08:57 | 42.79822 | 135.71153 | 36668 ft | 483 kts | 28° |
| 2026-05-05 08:58 | 42.85476 | 135.76083 | 36668 ft | 483 kts | 28° |
| 2026-05-05 08:58 | 42.91121 | 135.81032 | 36668 ft | 483 kts | 28° |
| 2026-05-05 08:59 | 42.96765 | 135.85990 | 36668 ft | 483 kts | 28° |
| 2026-05-05 08:59 | 43.02412 | 135.90951 | 36668 ft | 483 kts | 28° |
| 2026-05-05 09:00 | 43.08059 | 135.95917 | 36668 ft | 484 kts | 28° |
| 2026-05-05 09:00 | 43.13708 | 136.00891 | 36668 ft | 484 kts | 28° |
| 2026-05-05 09:01 | 43.19357 | 136.05871 | 36668 ft | 484 kts | 28° |
| 2026-05-05 09:01 | 43.25001 | 136.10865 | 36668 ft | 484 kts | 28° |
| 2026-05-05 09:02 | 43.30626 | 136.15907 | 36668 ft | 484 kts | 28° |
| 2026-05-05 09:02 | 43.36256 | 136.20960 | 36668 ft | 484 kts | 28° |
| 2026-05-05 09:03 | 43.41880 | 136.26010 | 36668 ft | 484 kts | 28° |
| 2026-05-05 09:03 | 43.47507 | 136.31068 | 36668 ft | 484 kts | 28° |
| 2026-05-05 09:04 | 43.53133 | 136.36130 | 36668 ft | 484 kts | 28° |
| 2026-05-05 09:04 | 43.58757 | 136.41205 | 36668 ft | 484 kts | 28° |
| 2026-05-05 09:05 | 43.64382 | 136.46287 | 36668 ft | 484 kts | 28° |
| 2026-05-05 09:05 | 43.70002 | 136.51368 | 36668 ft | 484 kts | 28° |
| 2026-05-05 09:06 | 43.75627 | 136.56457 | 36668 ft | 484 kts | 28° |
| 2026-05-05 09:06 | 43.81250 | 136.61552 | 36668 ft | 484 kts | 28° |
| 2026-05-05 09:07 | 43.86874 | 136.66654 | 36668 ft | 484 kts | 28° |
| 2026-05-05 09:07 | 43.92494 | 136.71762 | 36668 ft | 484 kts | 28° |
| 2026-05-05 09:08 | 43.98115 | 136.76881 | 36668 ft | 484 kts | 28° |
| 2026-05-05 09:08 | 44.03730 | 136.82004 | 36668 ft | 484 kts | 28° |
| 2026-05-05 09:09 | 44.09347 | 136.87140 | 36668 ft | 484 kts | 28° |
| 2026-05-05 09:09 | 44.12157 | 136.89704 | 36771 ft | 485 kts | 30° |
| 2026-05-05 09:09 | 44.14983 | 136.92288 | 36827 ft | 488 kts | 30° |
| 2026-05-05 09:10 | 44.20698 | 136.97534 | 36845 ft | 497 kts | 30° |
| 2026-05-05 09:10 | 44.26511 | 137.02885 | 36846 ft | 506 kts | 30° |
| 2026-05-05 09:11 | 44.32378 | 137.08333 | 36845 ft | 508 kts | 30° |
| 2026-05-05 09:11 | 44.38240 | 137.13786 | 36845 ft | 507 kts | 30° |
| 2026-05-05 09:12 | 44.44104 | 137.19236 | 36845 ft | 507 kts | 30° |
| 2026-05-05 09:12 | 44.49974 | 137.24690 | 36845 ft | 507 kts | 30° |
| 2026-05-05 09:13 | 44.55842 | 137.30147 | 36845 ft | 507 kts | 30° |
| 2026-05-05 09:13 | 44.61710 | 137.35608 | 36845 ft | 507 kts | 30° |
| 2026-05-05 09:14 | 44.67564 | 137.41066 | 36838 ft | 501 kts | 30° |
| 2026-05-05 09:14 | 44.73344 | 137.46465 | 36844 ft | 501 kts | 30° |
| 2026-05-05 09:15 | 44.79148 | 137.51893 | 36843 ft | 502 kts | 30° |
| 2026-05-05 09:15 | 44.84940 | 137.57344 | 36826 ft | 502 kts | 31° |
| 2026-05-05 09:16 | 44.90714 | 137.62828 | 36839 ft | 502 kts | 31° |
| 2026-05-05 09:16 | 44.96496 | 137.68318 | 36840 ft | 502 kts | 30° |
| 2026-05-05 09:17 | 45.02278 | 137.73807 | 36738 ft | 501 kts | 31° |
| 2026-05-05 09:17 | 45.08033 | 137.79277 | 36687 ft | 499 kts | 31° |
| 2026-05-05 09:18 | 45.13794 | 137.84759 | 36706 ft | 500 kts | 31° |
| 2026-05-05 09:18 | 45.19562 | 137.90255 | 36697 ft | 501 kts | 31° |
| 2026-05-05 09:19 | 45.25325 | 137.95757 | 36685 ft | 500 kts | 31° |
| 2026-05-05 09:19 | 45.31082 | 138.01264 | 36685 ft | 500 kts | 31° |
| 2026-05-05 09:20 | 45.36839 | 138.06784 | 36685 ft | 500 kts | 31° |
| 2026-05-05 09:20 | 45.42597 | 138.12316 | 36685 ft | 500 kts | 31° |
| 2026-05-05 09:21 | 45.48334 | 138.17885 | 36685 ft | 500 kts | 31° |
| 2026-05-05 09:21 | 45.54075 | 138.23481 | 36686 ft | 500 kts | 31° |
| 2026-05-05 09:22 | 45.59811 | 138.29069 | 36686 ft | 500 kts | 31° |
| 2026-05-05 09:22 | 45.65549 | 138.34661 | 36686 ft | 500 kts | 31° |
| 2026-05-05 09:23 | 45.71293 | 138.40262 | 36686 ft | 500 kts | 31° |
| 2026-05-05 09:23 | 45.77027 | 138.45862 | 36686 ft | 500 kts | 31° |
| 2026-05-05 09:24 | 45.82771 | 138.51479 | 36687 ft | 500 kts | 31° |
| 2026-05-05 09:24 | 45.88508 | 138.57100 | 36687 ft | 500 kts | 31° |
| 2026-05-05 09:25 | 45.94240 | 138.62729 | 36687 ft | 500 kts | 31° |
| 2026-05-05 09:25 | 45.99977 | 138.68373 | 36687 ft | 501 kts | 31° |
| 2026-05-05 09:26 | 46.05713 | 138.74030 | 36687 ft | 501 kts | 31° |
| 2026-05-05 09:26 | 46.11444 | 138.79696 | 36688 ft | 501 kts | 31° |
| 2026-05-05 09:27 | 46.17178 | 138.85377 | 36688 ft | 501 kts | 31° |
| 2026-05-05 09:27 | 46.22902 | 138.91063 | 36688 ft | 501 kts | 31° |
| 2026-05-05 09:28 | 46.28630 | 138.96767 | 36687 ft | 501 kts | 31° |
| 2026-05-05 09:28 | 46.34351 | 139.02478 | 36688 ft | 501 kts | 31° |
| 2026-05-05 09:29 | 46.40073 | 139.08203 | 36688 ft | 501 kts | 31° |
| 2026-05-05 09:29 | 46.45770 | 139.13993 | 36687 ft | 501 kts | 32° |
| 2026-05-05 09:30 | 46.51455 | 139.19814 | 36687 ft | 501 kts | 32° |
| 2026-05-05 09:30 | 46.57145 | 139.25626 | 36688 ft | 501 kts | 32° |
| 2026-05-05 09:31 | 46.62843 | 139.31440 | 36688 ft | 501 kts | 32° |
| 2026-05-05 09:31 | 46.68538 | 139.37251 | 36687 ft | 501 kts | 32° |
| 2026-05-05 09:32 | 46.73939 | 139.43636 | 36682 ft | 506 kts | 47° |
| 2026-05-05 09:32 | 46.75902 | 139.47887 | 36685 ft | 509 kts | 62° |
| 2026-05-05 09:32 | 46.77143 | 139.52699 | 36691 ft | 509 kts | 75° |
| 2026-05-05 09:33 | 46.78922 | 139.62669 | 36688 ft | 509 kts | 76° |
| 2026-05-05 09:33 | 46.80669 | 139.72658 | 36687 ft | 509 kts | 76° |
| 2026-05-05 09:34 | 46.82395 | 139.82646 | 36687 ft | 509 kts | 76° |
| 2026-05-05 09:34 | 46.84115 | 139.92643 | 36686 ft | 509 kts | 75° |
| 2026-05-05 09:35 | 46.86975 | 140.02041 | 36686 ft | 508 kts | 56° |
| 2026-05-05 09:35 | 46.93500 | 140.14166 | 36687 ft | 507 kts | 49° |
| 2026-05-05 09:36 | 46.97940 | 140.22154 | 36686 ft | 507 kts | 49° |
| 2026-05-05 09:36 | 47.02385 | 140.30141 | 36686 ft | 507 kts | 49° |
| 2026-05-05 09:37 | 47.06831 | 140.38128 | 36685 ft | 507 kts | 49° |
| 2026-05-05 09:37 | 47.11279 | 140.46125 | 36685 ft | 507 kts | 49° |
| 2026-05-05 09:38 | 47.15723 | 140.54124 | 36684 ft | 507 kts | 49° |
| 2026-05-05 09:38 | 47.20170 | 140.62142 | 36684 ft | 507 kts | 49° |
| 2026-05-05 09:39 | 47.24607 | 140.70160 | 36684 ft | 507 kts | 49° |
| 2026-05-05 09:39 | 47.29048 | 140.78200 | 36683 ft | 507 kts | 49° |
| 2026-05-05 09:40 | 47.33479 | 140.86244 | 36683 ft | 507 kts | 49° |
| 2026-05-05 09:40 | 47.37908 | 140.94305 | 36682 ft | 507 kts | 49° |
| 2026-05-05 09:41 | 47.42330 | 141.02376 | 36682 ft | 507 kts | 49° |
| 2026-05-05 09:41 | 47.46750 | 141.10464 | 36682 ft | 507 kts | 49° |
| 2026-05-05 09:42 | 47.51164 | 141.18564 | 36681 ft | 507 kts | 49° |
| 2026-05-05 09:42 | 47.55569 | 141.26671 | 36681 ft | 507 kts | 50° |
| 2026-05-05 09:43 | 47.59973 | 141.34799 | 36681 ft | 507 kts | 50° |
| 2026-05-05 09:43 | 47.64369 | 141.42935 | 36680 ft | 507 kts | 50° |
| 2026-05-05 09:44 | 47.68756 | 141.51080 | 36676 ft | 506 kts | 50° |
| 2026-05-05 09:44 | 47.73131 | 141.59225 | 36677 ft | 507 kts | 50° |
| 2026-05-05 09:45 | 47.77514 | 141.67410 | 36679 ft | 507 kts | 50° |
| 2026-05-05 09:45 | 47.81838 | 141.75635 | 36663 ft | 504 kts | 52° |
| 2026-05-05 09:46 | 47.85878 | 141.84084 | 36646 ft | 502 kts | 53° |
| 2026-05-05 09:46 | 47.89923 | 141.92555 | 36643 ft | 503 kts | 53° |
| 2026-05-05 09:47 | 47.93972 | 142.00992 | 36635 ft | 501 kts | 53° |
| 2026-05-05 09:47 | 47.98038 | 142.09440 | 36638 ft | 503 kts | 53° |
| 2026-05-05 09:48 | 48.02105 | 142.17879 | 36635 ft | 501 kts | 53° |
| 2026-05-05 09:48 | 48.06178 | 142.26327 | 36636 ft | 502 kts | 53° |
| 2026-05-05 09:49 | 48.10249 | 142.34773 | 36630 ft | 502 kts | 53° |
| 2026-05-05 09:49 | 48.14317 | 142.43226 | 36629 ft | 502 kts | 53° |
| 2026-05-05 09:50 | 48.18382 | 142.51692 | 36629 ft | 502 kts | 53° |
| 2026-05-05 09:50 | 48.22439 | 142.60154 | 36616 ft | 501 kts | 53° |
| 2026-05-05 09:51 | 48.26490 | 142.68624 | 36612 ft | 501 kts | 53° |
| 2026-05-05 09:51 | 48.30540 | 142.77115 | 36609 ft | 501 kts | 53° |
| 2026-05-05 09:52 | 48.34584 | 142.85618 | 36609 ft | 501 kts | 53° |
| 2026-05-05 09:52 | 48.38623 | 142.94133 | 36609 ft | 501 kts | 54° |
| 2026-05-05 09:53 | 48.42639 | 143.02678 | 36609 ft | 501 kts | 54° |
| 2026-05-05 09:53 | 48.46588 | 143.11316 | 36609 ft | 501 kts | 54° |
| 2026-05-05 09:54 | 48.50543 | 143.19941 | 36609 ft | 501 kts | 54° |
| 2026-05-05 09:54 | 48.54506 | 143.28564 | 36609 ft | 501 kts | 54° |
| 2026-05-05 09:55 | 48.58475 | 143.37189 | 36609 ft | 501 kts | 54° |
| 2026-05-05 09:55 | 48.62446 | 143.45814 | 36609 ft | 501 kts | 54° |
| 2026-05-05 09:56 | 48.66416 | 143.54447 | 36609 ft | 501 kts | 54° |
| 2026-05-05 09:56 | 48.70390 | 143.63100 | 36609 ft | 501 kts | 54° |
| 2026-05-05 09:57 | 48.74355 | 143.71750 | 36609 ft | 501 kts | 54° |
| 2026-05-05 09:57 | 48.78321 | 143.80421 | 36609 ft | 501 kts | 54° |
| 2026-05-05 09:58 | 48.82279 | 143.89094 | 36609 ft | 501 kts | 54° |
| 2026-05-05 09:58 | 48.86232 | 143.97782 | 36609 ft | 501 kts | 54° |
| 2026-05-05 09:59 | 48.90181 | 144.06484 | 36609 ft | 501 kts | 54° |
| 2026-05-05 09:59 | 48.94077 | 144.15253 | 36609 ft | 501 kts | 56° |
| 2026-05-05 10:00 | 48.97947 | 144.24044 | 36609 ft | 501 kts | 55° |
| 2026-05-05 10:00 | 49.01830 | 144.32841 | 36609 ft | 501 kts | 55° |
| 2026-05-05 10:01 | 49.05713 | 144.41629 | 36609 ft | 501 kts | 55° |
| 2026-05-05 10:01 | 49.09602 | 144.50430 | 36609 ft | 501 kts | 55° |
| 2026-05-05 10:02 | 49.13493 | 144.59242 | 36609 ft | 501 kts | 55° |
| 2026-05-05 10:02 | 49.17368 | 144.68060 | 36609 ft | 501 kts | 56° |
| 2026-05-05 10:03 | 49.21211 | 144.76933 | 36609 ft | 501 kts | 56° |
| 2026-05-05 10:03 | 49.25054 | 144.85803 | 36609 ft | 501 kts | 56° |
| 2026-05-05 10:04 | 49.28901 | 144.94680 | 36609 ft | 501 kts | 56° |
| 2026-05-05 10:04 | 49.32748 | 145.03564 | 36609 ft | 501 kts | 56° |
| 2026-05-05 10:05 | 49.36597 | 145.12464 | 36609 ft | 501 kts | 56° |
| 2026-05-05 10:05 | 49.40436 | 145.21361 | 36609 ft | 501 kts | 56° |
| 2026-05-05 10:06 | 49.44274 | 145.30274 | 36609 ft | 501 kts | 56° |
| 2026-05-05 10:06 | 49.48107 | 145.39201 | 36609 ft | 501 kts | 56° |
| 2026-05-05 10:07 | 49.51936 | 145.48140 | 36609 ft | 501 kts | 56° |
| 2026-05-05 10:07 | 49.55758 | 145.57091 | 36609 ft | 501 kts | 56° |
| 2026-05-05 10:08 | 49.59573 | 145.66054 | 36609 ft | 501 kts | 56° |
| 2026-05-05 10:08 | 49.63385 | 145.75036 | 36609 ft | 501 kts | 56° |
| 2026-05-05 10:09 | 49.67190 | 145.84029 | 36609 ft | 501 kts | 56° |
| 2026-05-05 10:09 | 49.70724 | 145.93273 | 36610 ft | 502 kts | 60° |
| 2026-05-05 10:10 | 49.74227 | 146.02581 | 36609 ft | 501 kts | 59° |
| 2026-05-05 10:10 | 49.77797 | 146.11815 | 36609 ft | 501 kts | 58° |
| 2026-05-05 10:11 | 49.81375 | 146.21066 | 36609 ft | 501 kts | 59° |
| 2026-05-05 10:11 | 49.84942 | 146.30318 | 36609 ft | 501 kts | 59° |
| 2026-05-05 10:12 | 49.88504 | 146.39590 | 36609 ft | 501 kts | 59° |
| 2026-05-05 10:12 | 49.92056 | 146.48870 | 36609 ft | 502 kts | 59° |
| 2026-05-05 10:13 | 49.95600 | 146.58161 | 36609 ft | 502 kts | 59° |
| 2026-05-05 10:13 | 49.99141 | 146.67481 | 36609 ft | 502 kts | 59° |
| 2026-05-05 10:14 | 50.02669 | 146.76801 | 36609 ft | 502 kts | 59° |
| 2026-05-05 10:14 | 50.06191 | 146.86140 | 36609 ft | 502 kts | 59° |
| 2026-05-05 10:15 | 50.09709 | 146.95501 | 36609 ft | 502 kts | 59° |
| 2026-05-05 10:15 | 50.13217 | 147.04872 | 36609 ft | 502 kts | 59° |
| 2026-05-05 10:16 | 50.16716 | 147.14250 | 36609 ft | 502 kts | 59° |
| 2026-05-05 10:16 | 50.20206 | 147.23642 | 36609 ft | 502 kts | 59° |
| 2026-05-05 10:17 | 50.23691 | 147.33055 | 36609 ft | 502 kts | 59° |
| 2026-05-05 10:17 | 50.27169 | 147.42482 | 36609 ft | 502 kts | 59° |
| 2026-05-05 10:18 | 50.30639 | 147.51921 | 36609 ft | 502 kts | 60° |
| 2026-05-05 10:18 | 50.34098 | 147.61367 | 36609 ft | 502 kts | 60° |
| 2026-05-05 10:19 | 50.37552 | 147.70833 | 36609 ft | 502 kts | 60° |
| 2026-05-05 10:19 | 50.40994 | 147.80303 | 36609 ft | 502 kts | 60° |
| 2026-05-05 10:20 | 50.44433 | 147.89799 | 36609 ft | 502 kts | 60° |
| 2026-05-05 10:20 | 50.47866 | 147.99313 | 36609 ft | 502 kts | 60° |
| 2026-05-05 10:21 | 50.51289 | 148.08837 | 36615 ft | 502 kts | 60° |
| 2026-05-05 10:21 | 50.54705 | 148.18373 | 36611 ft | 501 kts | 60° |
| 2026-05-05 10:22 | 50.58112 | 148.27926 | 36614 ft | 502 kts | 60° |
| 2026-05-05 10:22 | 50.61515 | 148.37497 | 36619 ft | 502 kts | 60° |
| 2026-05-05 10:23 | 50.64913 | 148.47097 | 36634 ft | 504 kts | 60° |
| 2026-05-05 10:23 | 50.68317 | 148.56745 | 36653 ft | 505 kts | 60° |
| 2026-05-05 10:24 | 50.71710 | 148.66398 | 36649 ft | 504 kts | 60° |
| 2026-05-05 10:24 | 50.75093 | 148.76065 | 36653 ft | 504 kts | 60° |
| 2026-05-05 10:25 | 50.78474 | 148.85755 | 36652 ft | 504 kts | 60° |
| 2026-05-05 10:25 | 50.81844 | 148.95460 | 36653 ft | 504 kts | 60° |
| 2026-05-05 10:26 | 50.85207 | 149.05175 | 36655 ft | 505 kts | 60° |
| 2026-05-05 10:26 | 50.88562 | 149.14906 | 36655 ft | 505 kts | 60° |
| 2026-05-05 10:27 | 50.91908 | 149.24650 | 36656 ft | 505 kts | 61° |
| 2026-05-05 10:27 | 50.95246 | 149.34408 | 36656 ft | 505 kts | 61° |
| 2026-05-05 10:28 | 50.98575 | 149.44178 | 36656 ft | 505 kts | 61° |
| 2026-05-05 10:28 | 51.01898 | 149.53968 | 36656 ft | 505 kts | 61° |
| 2026-05-05 10:29 | 51.05213 | 149.63774 | 36656 ft | 505 kts | 61° |
| 2026-05-05 10:29 | 51.08519 | 149.73592 | 36656 ft | 505 kts | 61° |
| 2026-05-05 10:30 | 51.11818 | 149.83423 | 36649 ft | 504 kts | 62° |
| 2026-05-05 10:30 | 51.15104 | 149.93254 | 36626 ft | 506 kts | 62° |
| 2026-05-05 10:31 | 51.18272 | 150.03215 | 36582 ft | 507 kts | 65° |
| 2026-05-05 10:31 | 51.21213 | 150.13413 | 36470 ft | 506 kts | 65° |
| 2026-05-05 10:32 | 51.24214 | 150.23560 | 36446 ft | 507 kts | 65° |
| 2026-05-05 10:32 | 51.27233 | 150.33734 | 36396 ft | 507 kts | 65° |
| 2026-05-05 10:33 | 51.30237 | 150.43906 | 36389 ft | 508 kts | 65° |
| 2026-05-05 10:33 | 51.33235 | 150.54094 | 36382 ft | 508 kts | 65° |
| 2026-05-05 10:34 | 51.36232 | 150.64320 | 36378 ft | 508 kts | 65° |
| 2026-05-05 10:34 | 51.39213 | 150.74541 | 36373 ft | 508 kts | 65° |
| 2026-05-05 10:35 | 51.42191 | 150.84796 | 36367 ft | 509 kts | 65° |
| 2026-05-05 10:35 | 51.45158 | 150.95057 | 36360 ft | 509 kts | 65° |
| 2026-05-05 10:36 | 51.48119 | 151.05345 | 36354 ft | 509 kts | 66° |
| 2026-05-05 10:36 | 51.51067 | 151.15631 | 36350 ft | 509 kts | 66° |
| 2026-05-05 10:37 | 51.54012 | 151.25955 | 36343 ft | 509 kts | 66° |
| 2026-05-05 10:37 | 51.56946 | 151.36284 | 36339 ft | 509 kts | 66° |
| 2026-05-05 10:38 | 51.59873 | 151.46635 | 36332 ft | 510 kts | 66° |
| 2026-05-05 10:38 | 51.62792 | 151.57004 | 36325 ft | 510 kts | 66° |
| 2026-05-05 10:39 | 51.65701 | 151.67385 | 36319 ft | 510 kts | 66° |
| 2026-05-05 10:39 | 51.68604 | 151.77785 | 36312 ft | 510 kts | 66° |
| 2026-05-05 10:40 | 51.71494 | 151.88189 | 36300 ft | 510 kts | 67° |
| 2026-05-05 10:40 | 51.74375 | 151.98621 | 36304 ft | 511 kts | 66° |
| 2026-05-05 10:41 | 51.77254 | 152.09063 | 36289 ft | 510 kts | 67° |
| 2026-05-05 10:41 | 51.80116 | 152.19521 | 36277 ft | 511 kts | 67° |
| 2026-05-05 10:42 | 51.84400 | 152.35240 | 36243 ft | 511 kts | 68° |
| 2026-05-05 10:43 | 51.87252 | 152.45760 | 36212 ft | 510 kts | 68° |
| 2026-05-05 10:43 | 51.90084 | 152.56271 | 36205 ft | 511 kts | 68° |
| 2026-05-05 10:44 | 51.92910 | 152.66799 | 36202 ft | 511 kts | 68° |
| 2026-05-05 10:44 | 51.95726 | 152.77339 | 36199 ft | 511 kts | 68° |
| 2026-05-05 10:45 | 51.98535 | 152.87900 | 36195 ft | 511 kts | 68° |
| 2026-05-05 10:45 | 52.01335 | 152.98479 | 36193 ft | 511 kts | 68° |
| 2026-05-05 10:46 | 52.04127 | 153.09073 | 36191 ft | 511 kts | 68° |
| 2026-05-05 10:46 | 52.06909 | 153.19684 | 36189 ft | 511 kts | 68° |
| 2026-05-05 10:47 | 52.09683 | 153.30310 | 36187 ft | 512 kts | 69° |
| 2026-05-05 10:47 | 52.12444 | 153.40937 | 36184 ft | 512 kts | 69° |
| 2026-05-05 10:48 | 52.15201 | 153.51598 | 36181 ft | 512 kts | 69° |
| 2026-05-05 10:48 | 52.17946 | 153.62265 | 36179 ft | 512 kts | 69° |
| 2026-05-05 10:49 | 52.20675 | 153.72961 | 36177 ft | 512 kts | 69° |
| 2026-05-05 10:49 | 52.23393 | 153.83660 | 36175 ft | 512 kts | 69° |
| 2026-05-05 10:50 | 52.26121 | 153.94380 | 36174 ft | 512 kts | 69° |
| 2026-05-05 10:50 | 52.28847 | 154.05092 | 36171 ft | 512 kts | 69° |
| 2026-05-05 10:51 | 52.31531 | 154.15842 | 36169 ft | 512 kts | 69° |
| 2026-05-05 10:51 | 52.34204 | 154.26620 | 36166 ft | 512 kts | 69° |
| 2026-05-05 10:52 | 52.36878 | 154.37400 | 36165 ft | 512 kts | 69° |
| 2026-05-05 10:52 | 52.39550 | 154.48183 | 36164 ft | 513 kts | 69° |
| 2026-05-05 10:53 | 52.42220 | 154.58983 | 36162 ft | 513 kts | 69° |
| 2026-05-05 10:53 | 52.44884 | 154.69791 | 36161 ft | 513 kts | 69° |
| 2026-05-05 10:54 | 52.47543 | 154.80614 | 36159 ft | 513 kts | 69° |
| 2026-05-05 10:54 | 52.50195 | 154.91451 | 36157 ft | 513 kts | 69° |
| 2026-05-05 10:55 | 52.52842 | 155.02307 | 36155 ft | 513 kts | 69° |
| 2026-05-05 10:55 | 52.55479 | 155.13176 | 36155 ft | 513 kts | 70° |
| 2026-05-05 10:56 | 52.58105 | 155.24047 | 36153 ft | 513 kts | 70° |
| 2026-05-05 10:56 | 52.60723 | 155.34933 | 36152 ft | 513 kts | 70° |
| 2026-05-05 10:57 | 52.63333 | 155.45841 | 36151 ft | 513 kts | 70° |
| 2026-05-05 10:57 | 52.64638 | 155.51314 | 35900 ft | 514 kts | 70° |
| 2026-05-05 10:57 | 52.65929 | 155.56739 | 35549 ft | 506 kts | 70° |
| 2026-05-05 10:57 | 52.67199 | 155.62088 | 35198 ft | 498 kts | 70° |
| 2026-05-05 10:58 | 52.68446 | 155.67354 | 34848 ft | 491 kts | 70° |
| 2026-05-05 10:58 | 52.69675 | 155.72559 | 34497 ft | 485 kts | 70° |
| 2026-05-05 10:58 | 52.70884 | 155.77691 | 34147 ft | 478 kts | 70° |
| 2026-05-05 10:58 | 52.72078 | 155.82772 | 33795 ft | 473 kts | 70° |
| 2026-05-05 10:59 | 52.73223 | 155.87810 | 33445 ft | 467 kts | 71° |
| 2026-05-05 10:59 | 52.74322 | 155.92805 | 33094 ft | 462 kts | 71° |
| 2026-05-05 10:59 | 52.75410 | 155.97747 | 32744 ft | 457 kts | 71° |
| 2026-05-05 10:59 | 52.76492 | 156.02639 | 32394 ft | 453 kts | 71° |
| 2026-05-05 11:00 | 52.77570 | 156.07491 | 32043 ft | 448 kts | 71° |
| 2026-05-05 11:00 | 52.78639 | 156.12288 | 31692 ft | 444 kts | 71° |
| 2026-05-05 11:00 | 52.79700 | 156.17054 | 31341 ft | 441 kts | 71° |
| 2026-05-05 11:00 | 52.80750 | 156.21772 | 30991 ft | 437 kts | 70° |
| 2026-05-05 11:01 | 52.81780 | 156.26467 | 30638 ft | 433 kts | 73° |
| 2026-05-05 11:01 | 52.82619 | 156.31221 | 30290 ft | 431 kts | 76° |
| 2026-05-05 11:01 | 52.83408 | 156.35974 | 29940 ft | 429 kts | 76° |
| 2026-05-05 11:01 | 52.84193 | 156.40711 | 29590 ft | 427 kts | 76° |
| 2026-05-05 11:02 | 52.84975 | 156.45415 | 29241 ft | 424 kts | 76° |
| 2026-05-05 11:02 | 52.85758 | 156.50106 | 28890 ft | 422 kts | 75° |
| 2026-05-05 11:02 | 52.86538 | 156.54766 | 28540 ft | 420 kts | 75° |
| 2026-05-05 11:02 | 52.87317 | 156.59406 | 28190 ft | 418 kts | 75° |
| 2026-05-05 11:03 | 52.88091 | 156.64018 | 27840 ft | 415 kts | 75° |
| 2026-05-05 11:03 | 52.88861 | 156.68598 | 27491 ft | 413 kts | 75° |
| 2026-05-05 11:03 | 52.89626 | 156.73161 | 27141 ft | 411 kts | 75° |
| 2026-05-05 11:03 | 52.90388 | 156.77708 | 26790 ft | 409 kts | 75° |
| 2026-05-05 11:04 | 52.91146 | 156.82225 | 26441 ft | 407 kts | 75° |
| 2026-05-05 11:04 | 52.91897 | 156.86717 | 26091 ft | 405 kts | 75° |
| 2026-05-05 11:04 | 52.92644 | 156.91190 | 25741 ft | 402 kts | 75° |
| 2026-05-05 11:04 | 52.93385 | 156.95639 | 25392 ft | 400 kts | 75° |
| 2026-05-05 11:05 | 52.94121 | 157.00067 | 25042 ft | 398 kts | 74° |
| 2026-05-05 11:05 | 52.94853 | 157.04473 | 24692 ft | 396 kts | 75° |
| 2026-05-05 11:05 | 52.95579 | 157.08857 | 24342 ft | 394 kts | 75° |
| 2026-05-05 11:05 | 52.96298 | 157.13212 | 23993 ft | 392 kts | 75° |
| 2026-05-05 11:06 | 52.97013 | 157.17555 | 23643 ft | 390 kts | 74° |
| 2026-05-05 11:06 | 52.97721 | 157.21871 | 23293 ft | 387 kts | 74° |
| 2026-05-05 11:06 | 52.98424 | 157.26159 | 22943 ft | 385 kts | 74° |
| 2026-05-05 11:06 | 52.99123 | 157.30433 | 22593 ft | 383 kts | 74° |
| 2026-05-05 11:07 | 52.99817 | 157.34682 | 22244 ft | 382 kts | 75° |
| 2026-05-05 11:07 | 53.00532 | 157.38907 | 21897 ft | 379 kts | 79° |
| 2026-05-05 11:07 | 53.01213 | 157.43113 | 21545 ft | 377 kts | 79° |
| 2026-05-05 11:07 | 53.01879 | 157.47309 | 21194 ft | 377 kts | 78° |
| 2026-05-05 11:08 | 53.02555 | 157.51509 | 20860 ft | 376 kts | 79° |
| 2026-05-05 11:08 | 53.03244 | 157.55642 | 20509 ft | 368 kts | 82° |
| 2026-05-05 11:08 | 53.03888 | 157.59692 | 20158 ft | 360 kts | 84° |
| 2026-05-05 11:08 | 53.04315 | 157.63707 | 19808 ft | 349 kts | 89° |
| 2026-05-05 11:09 | 53.04675 | 157.67656 | 19458 ft | 344 kts | 89° |
| 2026-05-05 11:09 | 53.05036 | 157.71542 | 19106 ft | 337 kts | 89° |
| 2026-05-05 11:09 | 53.05395 | 157.75301 | 18754 ft | 324 kts | 89° |
| 2026-05-05 11:09 | 53.05744 | 157.78917 | 18402 ft | 311 kts | 89° |
| 2026-05-05 11:10 | 53.06080 | 157.82392 | 18051 ft | 300 kts | 90° |
| 2026-05-05 11:10 | 53.06406 | 157.85749 | 17699 ft | 290 kts | 90° |
| 2026-05-05 11:10 | 53.06627 | 157.88028 | 17453 ft | 284 kts | 90° |
| 2026-05-05 11:10 | 53.06935 | 157.91205 | 17101 ft | 276 kts | 90° |
| 2026-05-05 11:11 | 53.07237 | 157.94329 | 16749 ft | 273 kts | 91° |
| 2026-05-05 11:11 | 53.07537 | 157.97446 | 16400 ft | 274 kts | 91° |
| 2026-05-05 11:11 | 53.07839 | 158.00576 | 16050 ft | 276 kts | 91° |
| 2026-05-05 11:11 | 53.08143 | 158.03737 | 15706 ft | 279 kts | 91° |
| 2026-05-05 11:12 | 53.08450 | 158.06915 | 15357 ft | 280 kts | 91° |
| 2026-05-05 11:12 | 53.08729 | 158.09806 | 15040 ft | 280 kts | 90° |
| 2026-05-05 11:12 | 53.08980 | 158.12411 | 14756 ft | 281 kts | 90° |
| 2026-05-05 11:12 | 53.09289 | 158.15624 | 14406 ft | 282 kts | 90° |
| 2026-05-05 11:13 | 53.09598 | 158.18845 | 14057 ft | 283 kts | 90° |
| 2026-05-05 11:13 | 53.09907 | 158.22081 | 13707 ft | 284 kts | 90° |
| 2026-05-05 11:13 | 53.10217 | 158.25324 | 13358 ft | 285 kts | 90° |
| 2026-05-05 11:13 | 53.10526 | 158.28577 | 13008 ft | 286 kts | 90° |
| 2026-05-05 11:14 | 53.10836 | 158.31839 | 12659 ft | 286 kts | 90° |
| 2026-05-05 11:14 | 53.11144 | 158.35100 | 12310 ft | 286 kts | 90° |
| 2026-05-05 11:14 | 53.11450 | 158.38327 | 11953 ft | 278 kts | 90° |
| 2026-05-05 11:14 | 53.11745 | 158.41452 | 11600 ft | 270 kts | 90° |
| 2026-05-05 11:15 | 53.12031 | 158.44497 | 11247 ft | 263 kts | 90° |
| 2026-05-05 11:15 | 53.12307 | 158.47462 | 10894 ft | 256 kts | 90° |
| 2026-05-05 11:15 | 53.12575 | 158.50350 | 10541 ft | 250 kts | 90° |
| 2026-05-05 11:15 | 53.12837 | 158.53195 | 10190 ft | 248 kts | 90° |
| 2026-05-05 11:16 | 53.13096 | 158.56023 | 9847 ft | 247 kts | 90° |
| 2026-05-05 11:16 | 53.13354 | 158.58830 | 9485 ft | 246 kts | 90° |
| 2026-05-05 11:16 | 53.13611 | 158.61635 | 9103 ft | 245 kts | 90° |
| 2026-05-05 11:16 | 53.13707 | 158.64379 | 8722 ft | 229 kts | 102° |
| 2026-05-05 11:17 | 53.13387 | 158.66858 | 8345 ft | 212 kts | 116° |
| 2026-05-05 11:17 | 53.12719 | 158.68974 | 7970 ft | 203 kts | 130° |
| 2026-05-05 11:17 | 53.11811 | 158.70737 | 7600 ft | 200 kts | 135° |
| 2026-05-05 11:17 | 53.10899 | 158.72469 | 7225 ft | 198 kts | 134° |
| 2026-05-05 11:18 | 53.09910 | 158.74034 | 6840 ft | 196 kts | 148° |
| 2026-05-05 11:18 | 53.08690 | 158.75046 | 6475 ft | 197 kts | 153° |
| 2026-05-05 11:18 | 53.07438 | 158.75951 | 6101 ft | 197 kts | 154° |
| 2026-05-05 11:18 | 53.06178 | 158.76828 | 5726 ft | 197 kts | 154° |
| 2026-05-05 11:19 | 53.04910 | 158.77685 | 5351 ft | 197 kts | 154° |
| 2026-05-05 11:19 | 53.03634 | 158.78522 | 4976 ft | 198 kts | 154° |
| 2026-05-05 11:19 | 53.02354 | 158.79340 | 4603 ft | 198 kts | 154° |
| 2026-05-05 11:19 | 53.01061 | 158.80146 | 4228 ft | 199 kts | 154° |
| 2026-05-05 11:20 | 52.99761 | 158.80939 | 3852 ft | 201 kts | 154° |
| 2026-05-05 11:20 | 52.98389 | 158.81751 | 3479 ft | 218 kts | 154° |
| 2026-05-05 11:20 | 52.96830 | 158.82120 | 3132 ft | 236 kts | 181° |
| 2026-05-05 11:20 | 52.95292 | 158.81239 | 3031 ft | 235 kts | 211° |
| 2026-05-05 11:21 | 52.94209 | 158.79383 | 3005 ft | 219 kts | 240° |
| 2026-05-05 11:21 | 52.93497 | 158.77203 | 3031 ft | 213 kts | 246° |
| 2026-05-05 11:21 | 52.92863 | 158.75008 | 3007 ft | 210 kts | 248° |
| 2026-05-05 11:21 | 52.92275 | 158.72804 | 2998 ft | 208 kts | 254° |
| 2026-05-05 11:22 | 52.91844 | 158.70526 | 3001 ft | 208 kts | 257° |
| 2026-05-05 11:22 | 52.91650 | 158.68218 | 2991 ft | 200 kts | 278° |
| 2026-05-05 11:22 | 52.91904 | 158.65968 | 3007 ft | 199 kts | 288° |
| 2026-05-05 11:22 | 52.92296 | 158.63799 | 3001 ft | 195 kts | 296° |
| 2026-05-05 11:23 | 52.93039 | 158.62023 | 2993 ft | 185 kts | 323° |
| 2026-05-05 11:23 | 52.94034 | 158.60948 | 2993 ft | 155 kts | 335° |
| 2026-05-05 11:23 | 52.94691 | 158.60403 | 3003 ft | 145 kts | 339° |
| 2026-05-05 11:23 | 52.95614 | 158.59730 | 3002 ft | 145 kts | 342° |
| 2026-05-05 11:24 | 52.96538 | 158.59089 | 3000 ft | 144 kts | 342° |
| 2026-05-05 11:24 | 52.97465 | 158.58453 | 3000 ft | 144 kts | 342° |
| 2026-05-05 11:24 | 52.98390 | 158.57819 | 3000 ft | 144 kts | 342° |
| 2026-05-05 11:24 | 52.99316 | 158.57184 | 3000 ft | 144 kts | 342° |
| 2026-05-05 11:25 | 53.00244 | 158.56548 | 3000 ft | 144 kts | 342° |
| 2026-05-05 11:25 | 53.01169 | 158.55914 | 3000 ft | 144 kts | 342° |
| 2026-05-05 11:25 | 53.02098 | 158.55277 | 2927 ft | 145 kts | 342° |
| 2026-05-05 11:25 | 53.03022 | 158.54647 | 2729 ft | 143 kts | 340° |
| 2026-05-05 11:26 | 53.03940 | 158.54019 | 2535 ft | 143 kts | 339° |
| 2026-05-05 11:26 | 53.04859 | 158.53387 | 2343 ft | 144 kts | 337° |
| 2026-05-05 11:26 | 53.05782 | 158.52752 | 2143 ft | 144 kts | 335° |
| 2026-05-05 11:26 | 53.06677 | 158.52125 | 1969 ft | 133 kts | 338° |
| 2026-05-05 11:27 | 53.07578 | 158.51481 | 1756 ft | 154 kts | 349° |
| 2026-05-05 11:27 | 53.08601 | 158.50802 | 1596 ft | 163 kts | 351° |
| 2026-05-05 11:27 | 53.09662 | 158.50073 | 1448 ft | 164 kts | 352° |
| 2026-05-05 11:27 | 53.10680 | 158.49362 | 1225 ft | 154 kts | 354° |
| 2026-05-05 11:28 | 53.11628 | 158.48707 | 1014 ft | 137 kts | 355° |
| 2026-05-05 11:28 | 53.12468 | 158.48161 | 813 ft | 131 kts | 347° |
| 2026-05-05 11:28 | 53.13299 | 158.47625 | 662 ft | 127 kts | 340° |
| 2026-05-05 11:28 | 53.14137 | 158.47048 | 501 ft | 137 kts | 335° |
| 2026-05-05 11:29 | 53.15024 | 158.46380 | 311 ft | 139 kts | 338° |
| 2026-05-05 11:29 | 53.15916 | 158.45765 | 172 ft | 137 kts | 338° |
| 2026-05-05 11:29 | 53.16670 | 158.45226 | 146 ft | 85 kts | 339° |
| 2026-05-05 11:29 | 53.16938 | 158.45051 | 146 ft | 9 kts | 338° |
| 2026-05-05 11:30 | 53.16991 | 158.45012 | 146 ft | 8 kts | 322° |